createdAt,value
2022-11-28T00:01:19.374Z,23.30
2022-11-28T00:03:47.980Z,24.20
2022-11-28T00:06:15.499Z,23.90
2022-11-28T00:08:42.602Z,24.52
2022-11-28T00:11:10.645Z,25.50
2022-11-28T00:13:37.516Z,22.08
2022-11-28T00:16:06.405Z,21.92
2022-11-28T00:18:33.814Z,25.73
2022-11-28T00:21:01.919Z,24.92
2022-11-28T00:23:29.230Z,25.30
2022-11-28T00:26:05.060Z,24.70
2022-11-28T00:28:31.997Z,19.75
2022-11-28T00:30:58.980Z,22.83
2022-11-28T00:33:25.904Z,21.60
2022-11-28T00:35:58.212Z,23.77
2022-11-28T00:38:25.108Z,23.90
2022-11-28T00:41:18.520Z,19.65
2022-11-28T00:43:45.882Z,19.92
2022-11-28T00:46:13.921Z,21.83
2022-11-28T00:48:41.134Z,20.70
2022-11-28T00:51:09.586Z,23.15
2022-11-28T00:53:37.278Z,24.17
2022-11-28T00:56:05.165Z,24.05
2022-11-28T00:58:32.639Z,23.27
2022-11-28T01:00:59.762Z,23.85
2022-11-28T01:03:27.044Z,23.10
2022-11-28T01:05:54.019Z,23.10
2022-11-28T01:08:20.807Z,24.48
2022-11-28T01:10:47.956Z,23.65
2022-11-28T01:13:14.964Z,20.23
2022-11-28T01:15:42.911Z,22.83
2022-11-28T01:18:09.924Z,25.10
2022-11-28T01:20:37.054Z,25.65
2022-11-28T01:23:04.046Z,25.45
2022-11-28T01:25:30.977Z,22.40
2022-11-28T01:27:57.940Z,22.60
2022-11-28T01:30:25.157Z,18.45
2022-11-28T01:32:52.013Z,23.42
2022-11-28T01:35:19.183Z,23.90
2022-11-28T01:37:46.044Z,19.23
2022-11-28T01:40:13.276Z,20.33
2022-11-28T01:42:40.164Z,22.45
2022-11-28T01:45:33.423Z,22.70
2022-11-28T01:48:02.982Z,22.70
2022-11-28T01:50:31.960Z,22.17
2022-11-28T01:53:02.028Z,22.77
2022-11-28T01:55:31.548Z,23.85
2022-11-28T01:57:58.602Z,23.13
2022-11-28T02:00:25.529Z,23.25
2022-11-28T02:03:13.124Z,23.50
2022-11-28T02:05:40.148Z,21.15
2022-11-28T02:08:08.507Z,19.45
2022-11-28T02:10:53.715Z,22.52
2022-11-28T02:13:39.924Z,21.88
2022-11-28T02:16:39.071Z,23.30
2022-11-28T02:19:32.676Z,24.73
2022-11-28T02:22:08.196Z,23.27
2022-11-28T02:24:53.766Z,24.73
2022-11-28T02:27:32.330Z,24.02
2022-11-28T02:30:01.920Z,24.45
2022-11-28T02:32:37.324Z,27.38
2022-11-28T02:35:07.181Z,26.05
2022-11-28T02:37:36.836Z,26.55
2022-11-28T02:40:03.632Z,25.07
2022-11-28T02:42:38.833Z,25.38
2022-11-28T02:45:20.745Z,26.73
2022-11-28T02:47:53.034Z,21.73
2022-11-28T02:50:24.816Z,22.88
2022-11-28T02:53:05.537Z,23.73
2022-11-28T02:55:32.595Z,23.73
2022-11-28T02:57:59.527Z,25.73
2022-11-28T03:00:32.427Z,21.83
2022-11-28T03:03:08.649Z,26.25
2022-11-28T03:05:38.545Z,19.15
2022-11-28T03:08:05.345Z,21.70
2022-11-28T03:10:32.248Z,20.85
2022-11-28T03:13:08.545Z,20.02
2022-11-28T03:15:44.706Z,16.88
2022-11-28T03:18:13.670Z,16.42
2022-11-28T03:20:43.597Z,16.63
2022-11-28T03:23:13.382Z,16.83
2022-11-28T03:25:52.329Z,15.80
2022-11-28T03:28:25.354Z,16.98
2022-11-28T03:30:59.794Z,16.67
2022-11-28T03:33:29.870Z,15.23
2022-11-28T03:35:59.956Z,17.17
2022-11-28T03:38:30.714Z,16.42
2022-11-28T03:41:00.311Z,17.45
2022-11-28T03:43:29.064Z,17.00
2022-11-28T03:45:58.181Z,14.50
2022-11-28T03:48:27.908Z,17.27
2022-11-28T03:50:58.882Z,18.15
2022-11-28T03:53:34.972Z,17.98
2022-11-28T03:56:08.362Z,17.48
2022-11-28T03:58:47.796Z,16.52
2022-11-28T04:01:19.921Z,17.92
2022-11-28T04:03:53.439Z,19.60
2022-11-28T04:06:20.588Z,18.77
2022-11-28T04:08:56.539Z,19.38
2022-11-28T04:11:26.070Z,19.90
2022-11-28T04:13:56.075Z,19.87
2022-11-28T04:16:25.578Z,20.67
2022-11-28T04:19:00.000Z,20.50
2022-11-28T04:21:26.941Z,19.05
2022-11-28T04:23:55.589Z,21.10
2022-11-28T04:26:26.858Z,21.42
2022-11-28T04:28:55.172Z,23.42
2022-11-28T04:31:23.023Z,21.30
2022-11-28T04:33:53.285Z,24.33
2022-11-28T04:36:20.705Z,24.73
2022-11-28T04:38:56.302Z,22.48
2022-11-28T04:41:29.652Z,24.30
2022-11-28T04:44:12.436Z,21.67
2022-11-28T04:46:48.060Z,22.15
2022-11-28T04:49:15.057Z,23.38
2022-11-28T04:51:49.734Z,23.05
2022-11-28T04:54:22.097Z,23.30
2022-11-28T04:56:53.269Z,21.27
2022-11-28T04:59:20.384Z,23.25
2022-11-28T05:01:48.563Z,20.90
2022-11-28T05:04:17.608Z,22.50
2022-11-28T05:06:44.722Z,23.52
2022-11-28T05:09:12.163Z,23.00
2022-11-28T05:11:39.594Z,25.00
2022-11-28T05:14:06.878Z,23.23
2022-11-28T05:16:33.839Z,21.73
2022-11-28T05:19:00.755Z,22.30
2022-11-28T05:21:27.575Z,23.35
2022-11-28T05:23:54.516Z,24.02
2022-11-28T05:26:21.839Z,24.10
2022-11-28T05:28:50.347Z,23.35
2022-11-28T05:31:19.103Z,22.75
2022-11-28T05:33:45.957Z,23.50
2022-11-28T05:36:13.830Z,26.13
2022-11-28T05:38:41.691Z,23.30
2022-11-28T05:41:08.989Z,24.92
2022-11-28T05:43:36.018Z,20.23
2022-11-28T05:46:04.693Z,22.95
2022-11-28T05:48:31.654Z,25.88
2022-11-28T05:50:58.637Z,24.80
2022-11-28T05:53:26.132Z,24.88
2022-11-28T05:55:52.946Z,23.95
2022-11-28T05:58:19.878Z,25.42
2022-11-28T06:00:46.741Z,25.35
2022-11-28T06:03:13.544Z,25.05
2022-11-28T06:05:43.250Z,25.50
2022-11-28T06:08:14.017Z,22.95
2022-11-28T06:10:41.215Z,25.42
2022-11-28T06:13:08.716Z,24.30
2022-11-28T06:15:38.252Z,25.08
2022-11-28T06:18:05.811Z,22.50
2022-11-28T06:20:34.615Z,24.88
2022-11-28T06:23:01.461Z,25.23
2022-11-28T06:25:28.412Z,25.95
2022-11-28T06:27:55.220Z,24.45
2022-11-28T06:30:22.059Z,27.30
2022-11-28T06:32:48.912Z,25.42
2022-11-28T06:35:15.795Z,26.83
2022-11-28T06:37:42.793Z,27.17
2022-11-28T06:40:09.670Z,26.83
2022-11-28T06:42:37.101Z,25.77
2022-11-28T06:45:04.877Z,27.38
2022-11-28T06:47:32.319Z,25.88
2022-11-28T06:49:59.203Z,26.55
2022-11-28T06:52:26.592Z,25.08
2022-11-28T06:54:53.587Z,24.60
2022-11-28T06:57:20.411Z,27.08
2022-11-28T06:59:48.361Z,24.40
2022-11-28T07:02:15.201Z,26.20
2022-11-28T07:04:42.108Z,26.42
2022-11-28T07:07:12.531Z,26.27
2022-11-28T07:09:42.114Z,26.27
2022-11-28T07:12:09.166Z,25.80
2022-11-28T07:14:36.046Z,23.92
2022-11-28T07:17:03.005Z,24.90
2022-11-28T07:19:30.021Z,25.45
2022-11-28T07:21:56.876Z,25.33
2022-11-28T07:24:23.946Z,24.40
2022-11-28T07:26:50.830Z,22.42
2022-11-28T07:29:18.566Z,26.60
2022-11-28T07:31:45.598Z,24.13
2022-11-28T07:34:12.877Z,22.45
2022-11-28T07:36:39.765Z,25.02
2022-11-28T07:39:08.742Z,25.05
2022-11-28T07:41:35.600Z,23.67
2022-11-28T07:44:04.033Z,24.75
2022-11-28T07:46:32.300Z,23.33
2022-11-28T07:48:59.405Z,23.42
2022-11-28T07:51:30.810Z,24.52
2022-11-28T07:53:57.687Z,24.17
2022-11-28T07:56:35.007Z,23.50
2022-11-28T07:59:12.256Z,21.58
2022-11-28T08:01:39.298Z,20.80
2022-11-28T08:04:07.383Z,21.05
2022-11-28T08:06:37.798Z,20.83
2022-11-28T08:09:04.669Z,21.20
2022-11-28T08:11:32.830Z,19.67
2022-11-28T08:14:00.140Z,21.15
2022-11-28T08:16:27.701Z,18.40
2022-11-28T08:18:55.378Z,20.23
2022-11-28T08:21:25.998Z,20.50
2022-11-28T08:23:53.960Z,20.35
2022-11-28T08:26:23.889Z,20.67
2022-11-28T08:28:54.463Z,21.45
2022-11-28T08:31:23.395Z,22.35
2022-11-28T08:33:51.047Z,21.15
2022-11-28T08:36:19.569Z,23.73
2022-11-28T08:38:57.838Z,22.17
2022-11-28T08:41:33.713Z,24.10
2022-11-28T08:44:00.650Z,20.75
2022-11-28T08:46:27.680Z,21.30
2022-11-28T08:48:54.601Z,20.88
2022-11-28T08:51:26.285Z,24.17
2022-11-28T08:53:59.116Z,22.13
2022-11-28T08:56:26.436Z,20.17
2022-11-28T08:58:53.317Z,20.48
2022-11-28T09:01:21.445Z,21.48
2022-11-28T09:03:48.554Z,19.02
2022-11-28T09:06:16.179Z,21.27
2022-11-28T09:08:44.394Z,20.48
2022-11-28T09:11:12.253Z,20.58
2022-11-28T09:13:39.653Z,20.05
2022-11-28T09:16:07.026Z,18.83
2022-11-28T09:18:33.753Z,16.63
2022-11-28T09:21:05.110Z,19.83
2022-11-28T09:23:31.874Z,18.10
2022-11-28T09:25:58.671Z,19.52
2022-11-28T09:28:28.783Z,19.08
2022-11-28T09:31:02.312Z,19.88
2022-11-28T09:33:29.238Z,16.98
2022-11-28T09:35:56.424Z,19.15
2022-11-28T09:38:23.285Z,18.90
2022-11-28T09:40:50.501Z,23.67
2022-11-28T09:43:37.494Z,21.17
2022-11-28T09:46:06.155Z,17.13
2022-11-28T09:48:35.255Z,19.38
2022-11-28T09:51:17.110Z,16.52
2022-11-28T09:54:04.283Z,17.73
2022-11-28T09:56:31.193Z,19.75
2022-11-28T09:59:00.829Z,18.48
2022-11-28T10:01:46.417Z,19.90
2022-11-28T10:04:20.962Z,19.30
2022-11-28T10:06:53.222Z,18.50
2022-11-28T10:09:19.989Z,17.55
2022-11-28T10:11:58.735Z,19.20
2022-11-28T10:14:45.950Z,19.33
2022-11-28T10:17:21.993Z,18.95
2022-11-28T10:20:01.254Z,16.65
2022-11-28T10:22:43.313Z,16.92
2022-11-28T10:25:16.356Z,15.18
2022-11-28T10:27:43.318Z,15.43
2022-11-28T10:30:18.830Z,15.65
2022-11-28T10:32:48.713Z,13.18
2022-11-28T10:35:15.500Z,14.68
2022-11-28T10:37:43.151Z,16.58
2022-11-28T10:40:36.351Z,15.20
2022-11-28T10:43:23.374Z,16.40
2022-11-28T10:46:20.301Z,16.73
2022-11-28T10:48:54.829Z,17.45
2022-11-28T10:51:21.646Z,19.42
2022-11-28T10:54:03.541Z,18.92
2022-11-28T10:56:59.935Z,19.67
2022-11-28T10:59:45.299Z,20.35
2022-11-28T11:02:21.300Z,22.60
2022-11-28T11:04:48.401Z,22.95
2022-11-28T11:07:29.577Z,22.95
2022-11-28T11:10:15.105Z,21.35
2022-11-28T11:12:42.709Z,22.88
2022-11-28T11:15:18.090Z,22.48
2022-11-28T11:17:44.907Z,22.17
2022-11-28T11:20:23.601Z,21.35
2022-11-28T11:22:57.239Z,19.80
2022-11-28T11:25:25.127Z,18.30
2022-11-28T11:27:53.311Z,16.85
2022-11-28T11:30:27.196Z,17.52
2022-11-28T11:32:55.205Z,18.42
2022-11-28T11:35:26.707Z,18.02
2022-11-28T11:37:53.613Z,15.95
2022-11-28T11:40:20.751Z,16.77
2022-11-28T11:42:58.246Z,17.60
2022-11-28T11:45:33.439Z,17.10
2022-11-28T11:48:00.456Z,14.65
2022-11-28T11:50:28.855Z,13.55
2022-11-28T11:53:01.539Z,13.48
2022-11-28T11:55:30.248Z,13.70
2022-11-28T11:58:02.772Z,14.75
2022-11-28T12:00:37.924Z,16.77
2022-11-28T12:03:18.898Z,15.50
2022-11-28T12:08:51.503Z,15.82
2022-11-28T12:11:21.350Z,18.60
2022-11-28T12:13:49.519Z,18.98
2022-11-28T12:16:25.686Z,18.13
2022-11-28T12:18:59.993Z,17.55
2022-11-28T12:21:42.441Z,17.05
2022-11-28T12:24:15.036Z,17.00
2022-11-28T12:26:53.730Z,17.25
2022-11-28T12:29:35.904Z,15.40
2022-11-28T12:32:18.081Z,16.08
2022-11-28T12:34:54.143Z,16.75
2022-11-28T12:38:08.978Z,16.20
2022-11-28T12:40:36.125Z,14.57
2022-11-28T12:43:12.540Z,13.90
2022-11-28T12:45:39.427Z,14.60
2022-11-28T12:48:33.674Z,13.00
2022-11-28T12:51:19.852Z,13.50
2022-11-28T12:54:02.248Z,14.00
2022-11-28T12:56:49.584Z,13.63
2022-11-28T12:59:26.191Z,12.77
2022-11-28T13:02:11.615Z,12.85
2022-11-28T13:04:44.769Z,15.27
2022-11-28T13:07:30.789Z,13.63
2022-11-28T13:09:57.653Z,14.18
2022-11-28T13:12:37.279Z,14.23
2022-11-28T13:15:20.707Z,13.98
2022-11-28T13:18:23.691Z,13.95
2022-11-28T13:20:54.324Z,13.65
2022-11-28T13:23:26.983Z,13.93
2022-11-28T13:26:14.067Z,13.23
2022-11-28T13:28:59.055Z,13.90
2022-11-28T13:31:33.839Z,20.00
2022-11-28T13:34:00.978Z,13.32
2022-11-28T13:39:47.275Z,16.58
2022-11-28T13:42:44.329Z,14.73
2022-11-28T13:45:09.369Z,14.68
2022-11-28T13:47:37.019Z,14.35
2022-11-28T13:50:28.654Z,11.65
2022-11-28T13:52:59.269Z,13.50
2022-11-28T13:55:47.041Z,13.23
2022-11-28T13:58:22.601Z,12.48
2022-11-28T14:01:08.682Z,13.82
2022-11-28T14:03:37.120Z,15.43
2022-11-28T14:06:07.200Z,14.73
2022-11-28T14:08:39.105Z,13.88
2022-11-28T14:11:27.255Z,14.07
2022-11-28T14:14:03.990Z,14.60
2022-11-28T14:16:48.443Z,15.23
2022-11-28T14:19:24.912Z,16.70
2022-11-28T14:22:04.539Z,15.93
2022-11-28T14:24:50.506Z,17.17
2022-11-28T14:27:22.321Z,17.23
2022-11-28T14:29:51.891Z,18.75
2022-11-28T14:32:40.561Z,18.35
2022-11-28T14:35:15.965Z,18.58
2022-11-28T14:37:50.537Z,18.92
2022-11-28T14:40:57.131Z,17.40
2022-11-28T14:43:24.182Z,19.58
2022-11-28T14:45:52.135Z,18.15
2022-11-28T14:48:29.098Z,20.02
2022-11-28T14:51:01.300Z,22.13
2022-11-28T14:53:38.758Z,20.38
2022-11-28T14:56:24.176Z,21.00
2022-11-28T14:58:52.723Z,21.45
2022-11-28T15:01:31.627Z,21.65
2022-11-28T15:06:35.681Z,21.15
2022-11-28T15:09:03.650Z,22.77
2022-11-28T15:11:42.812Z,22.95
2022-11-28T15:14:14.372Z,20.85
2022-11-28T15:16:49.813Z,22.92
2022-11-28T15:19:32.343Z,22.02
2022-11-28T15:22:00.896Z,23.88
2022-11-28T15:24:35.090Z,23.15
2022-11-28T15:27:08.350Z,21.35
2022-11-28T15:29:36.367Z,19.70
2022-11-28T15:32:04.107Z,20.85
2022-11-28T15:34:33.244Z,21.45
2022-11-28T15:37:02.436Z,20.70
2022-11-28T15:39:32.036Z,21.23
2022-11-28T15:42:00.548Z,20.80
2022-11-28T15:44:28.430Z,19.75
2022-11-28T15:46:56.607Z,21.45
2022-11-28T15:49:29.363Z,21.92
2022-11-28T15:52:00.177Z,21.30
2022-11-28T15:54:35.947Z,19.92
2022-11-28T15:57:04.872Z,18.92
2022-11-28T15:59:38.287Z,23.27
2022-11-28T16:02:13.365Z,20.25
2022-11-28T16:04:41.177Z,21.02
2022-11-28T16:07:13.728Z,19.65
2022-11-28T16:09:49.801Z,20.42
2022-11-28T16:12:16.698Z,20.33
2022-11-28T16:14:44.595Z,20.13
2022-11-28T16:17:25.659Z,18.17
2022-11-28T16:19:54.497Z,16.63
2022-11-28T16:22:23.070Z,17.90
2022-11-28T16:24:51.992Z,18.65
2022-11-28T16:27:31.756Z,18.53
2022-11-28T16:30:02.066Z,19.33
2022-11-28T16:32:38.966Z,17.30
2022-11-28T16:35:07.192Z,15.85
2022-11-28T16:37:34.508Z,16.02
2022-11-28T16:40:06.153Z,13.52
2022-11-28T16:42:34.058Z,15.05
2022-11-28T16:45:08.372Z,14.68
2022-11-28T16:47:37.514Z,13.23
2022-11-28T16:50:16.044Z,14.77
2022-11-28T16:52:46.776Z,12.38
2022-11-28T16:55:36.893Z,13.48
2022-11-28T16:58:20.465Z,12.90
2022-11-28T17:00:58.869Z,12.98
2022-11-28T17:03:45.282Z,14.30
2022-11-28T17:06:16.794Z,13.82
2022-11-28T17:08:44.444Z,15.43
2022-11-28T17:11:11.632Z,11.80
2022-11-28T17:13:38.985Z,13.70
2022-11-28T17:16:06.447Z,14.27
2022-11-28T17:18:34.808Z,10.98
2022-11-28T17:21:04.347Z,13.60
2022-11-28T17:23:35.130Z,14.57
2022-11-28T17:28:29.737Z,12.70
2022-11-28T17:30:58.931Z,14.45
2022-11-28T17:33:30.076Z,14.35
2022-11-28T17:35:58.245Z,14.30
2022-11-28T17:38:25.518Z,14.60
2022-11-28T17:40:52.273Z,14.60
2022-11-28T17:43:20.274Z,14.48
2022-11-28T17:45:49.649Z,14.05
2022-11-28T17:48:18.460Z,14.02
2022-11-28T17:50:46.804Z,13.25
2022-11-28T17:53:15.238Z,16.48
2022-11-28T17:55:46.039Z,15.57
2022-11-28T17:58:17.639Z,13.73
2022-11-28T18:00:44.830Z,12.73
2022-11-28T18:03:12.825Z,14.30
2022-11-28T18:05:42.424Z,13.13
2022-11-28T18:08:09.386Z,14.68
2022-11-28T18:10:36.431Z,14.05
2022-11-28T18:13:05.011Z,13.90
2022-11-28T18:15:32.851Z,14.82
2022-11-28T18:17:59.746Z,14.43
2022-11-28T18:20:28.764Z,14.73
2022-11-28T18:22:56.661Z,15.85
2022-11-28T18:25:24.106Z,15.98
2022-11-28T18:27:52.099Z,15.82
2022-11-28T18:30:19.149Z,16.60
2022-11-28T18:32:46.401Z,14.95
2022-11-28T18:35:13.494Z,15.73
2022-11-28T18:37:40.287Z,15.20
2022-11-28T18:40:09.425Z,13.85
2022-11-28T18:42:37.777Z,14.95
2022-11-28T18:45:05.094Z,14.32
2022-11-28T18:47:32.479Z,14.35
2022-11-28T18:50:00.029Z,14.60
2022-11-28T18:52:27.667Z,14.07
2022-11-28T18:54:54.653Z,14.13
2022-11-28T18:57:22.605Z,14.90
2022-11-28T18:59:55.029Z,14.43
2022-11-28T19:02:22.677Z,14.80
2022-11-28T19:04:49.673Z,15.98
2022-11-28T19:07:16.659Z,18.13
2022-11-28T19:09:45.428Z,16.05
2022-11-28T19:12:15.249Z,14.73
2022-11-28T19:14:42.217Z,15.57
2022-11-28T19:17:09.286Z,15.98
2022-11-28T19:19:45.463Z,15.82
2022-11-28T19:22:12.753Z,17.15
2022-11-28T19:24:39.867Z,16.10
2022-11-28T19:27:12.566Z,17.33
2022-11-28T19:29:43.415Z,15.75
2022-11-28T19:32:10.942Z,17.15
2022-11-28T19:34:37.898Z,17.92
2022-11-28T19:37:05.215Z,17.25
2022-11-28T19:39:32.575Z,17.30
2022-11-28T19:42:00.378Z,17.55
2022-11-28T19:44:29.504Z,18.25
2022-11-28T19:46:56.600Z,17.17
2022-11-28T19:49:24.412Z,16.40
2022-11-28T19:51:51.756Z,16.60
2022-11-28T19:54:22.171Z,16.42
2022-11-28T19:59:16.807Z,17.55
2022-11-28T20:01:44.131Z,16.08
2022-11-28T20:04:11.281Z,16.40
2022-11-28T20:06:43.941Z,15.90
2022-11-28T20:09:11.693Z,16.10
2022-11-28T20:11:42.219Z,16.77
2022-11-28T20:14:14.186Z,15.57
2022-11-28T20:16:41.362Z,16.77
2022-11-28T20:19:10.920Z,16.75
2022-11-28T20:21:38.036Z,16.70
2022-11-28T20:24:07.657Z,16.63
2022-11-28T20:29:03.084Z,13.60
2022-11-28T20:31:32.033Z,14.40
2022-11-28T20:33:58.992Z,13.35
2022-11-28T20:36:27.136Z,14.40
2022-11-28T20:38:54.626Z,12.75
2022-11-28T20:41:22.816Z,16.25
2022-11-28T20:43:49.785Z,14.55
2022-11-28T20:46:18.084Z,15.85
2022-11-28T20:48:45.298Z,14.48
2022-11-28T20:51:13.417Z,14.13
2022-11-28T20:53:41.591Z,15.02
2022-11-28T20:56:13.734Z,13.07
2022-11-28T20:58:41.039Z,14.82
2022-11-28T21:01:08.103Z,15.95
2022-11-28T21:03:35.334Z,16.83
2022-11-28T21:06:02.324Z,17.00
2022-11-28T21:08:33.817Z,17.42
2022-11-28T21:11:04.446Z,16.00
2022-11-28T21:15:58.797Z,18.10
2022-11-28T21:18:25.669Z,17.02
2022-11-28T21:20:53.153Z,17.45
2022-11-28T21:23:20.204Z,17.35
2022-11-28T21:25:47.125Z,16.90
2022-11-28T21:28:14.056Z,18.67
2022-11-28T21:30:45.167Z,18.25
2022-11-28T21:33:12.519Z,19.05
2022-11-28T21:35:39.926Z,17.80
2022-11-28T21:38:07.117Z,17.30
2022-11-28T21:40:34.446Z,19.90
2022-11-28T21:43:01.548Z,19.35
2022-11-28T21:45:28.443Z,19.38
2022-11-28T21:47:55.421Z,20.25
2022-11-28T21:50:22.542Z,22.52
2022-11-28T21:52:49.496Z,21.02
2022-11-28T21:55:16.500Z,21.30
2022-11-28T21:57:43.433Z,22.30
2022-11-28T22:00:25.606Z,17.75
2022-11-28T22:03:03.960Z,20.65
2022-11-28T22:05:33.098Z,20.15
2022-11-28T22:08:00.406Z,20.33
2022-11-28T22:10:28.748Z,21.70
2022-11-28T22:12:56.326Z,21.50
2022-11-28T22:15:23.254Z,20.48
2022-11-28T22:17:50.220Z,19.95
2022-11-28T22:20:18.005Z,17.58
2022-11-28T22:22:45.071Z,16.73
2022-11-28T22:25:12.968Z,14.88
2022-11-28T22:27:40.149Z,15.68
2022-11-28T22:30:07.751Z,15.75
2022-11-28T22:32:34.781Z,16.23
2022-11-28T22:35:03.084Z,17.35
2022-11-28T22:37:30.792Z,17.83
2022-11-28T22:39:57.852Z,15.52
2022-11-28T22:42:25.413Z,16.35
2022-11-28T22:44:52.381Z,15.55
2022-11-28T22:47:19.429Z,14.95
2022-11-28T22:49:46.337Z,15.15
2022-11-28T22:52:13.893Z,14.38
2022-11-28T22:54:40.989Z,15.18
2022-11-28T22:57:08.156Z,15.98
2022-11-28T22:59:36.837Z,15.80
2022-11-28T23:02:04.084Z,16.60
2022-11-28T23:04:31.854Z,15.07
2022-11-28T23:06:58.956Z,16.70
2022-11-28T23:09:25.869Z,16.88
2022-11-28T23:11:53.149Z,17.35
2022-11-28T23:14:20.112Z,15.90
2022-11-28T23:16:48.199Z,17.77
2022-11-28T23:19:17.583Z,17.23
2022-11-28T23:21:45.135Z,17.80
2022-11-28T23:24:13.396Z,18.95
2022-11-28T23:26:40.768Z,19.13
2022-11-28T23:29:08.099Z,18.48
2022-11-28T23:31:37.529Z,16.38
2022-11-28T23:34:05.332Z,14.68
2022-11-28T23:36:40.076Z,12.95
2022-11-28T23:39:12.232Z,14.65
2022-11-28T23:41:39.485Z,15.05
2022-11-28T23:44:06.675Z,16.30
2022-11-28T23:46:34.690Z,17.52
2022-11-28T23:49:01.701Z,17.63
2022-11-28T23:51:28.674Z,18.38
2022-11-28T23:53:55.667Z,18.58
2022-11-28T23:56:27.002Z,19.25
2022-11-28T23:58:54.967Z,17.75
